aviador You're here:

OEDR Decoded Metar

DHAHRAN in SAUDI ARABIA
Report Time2017-11-25 03:00:00
UTC Time2017-11-25 03:39:31
Flight Rules vfr VFR
Wind320° at 11 kt
W.Decomp.*RWY 34: 10.2 kt HW 4.1 kt LCW
W.Rank320° ranks 4
Current wind is above 320° avg. (9.2)
Visibility9999 m
Phenomena:N/A
Clouds:Few 030 Hf
Expected CloudBase > 3,600 ft AGL from Temp-Dew spread
CeilingNone
Temp16°C (ISA +1)
Dew Point07°C (55% RH)
AAT11.3°C
QNH1021 hPa
Density Alt56 ft
Elevation56 ft
Report Wrong Elevation
Raw Report
METAR OEDR 250300Z 32011KT 9999 FEW030 16/07 Q1021 NOSIG=####018000088####
SAIN90 VOPB 250300

Extra information for OEDR:More info

Metar Taf Metar & Taf Last 4 Metars F.Rules Stats Wind Profile Meteogram Temp Stats Airport Information Weather charts Add Link Nearby VenuesMetar ALERT Operation Metar Decoded Social comments